sensor_id;sensor_type;location;lat;lon;timestamp;P1;durP1;ratioP1;P2;durP2;ratioP2
74245;SDS011;62601;51.044;13.788;2023-04-08T00:00:33;16.17;;;12.60;;
74245;SDS011;62601;51.044;13.788;2023-04-08T00:02:55;14.93;;;11.75;;
74245;SDS011;62601;51.044;13.788;2023-04-08T00:05:16;16.58;;;11.68;;
74245;SDS011;62601;51.044;13.788;2023-04-08T00:07:38;16.63;;;11.43;;
74245;SDS011;62601;51.044;13.788;2023-04-08T00:09:59;16.20;;;11.88;;
74245;SDS011;62601;51.044;13.788;2023-04-08T00:12:20;15.48;;;10.95;;
74245;SDS011;62601;51.044;13.788;2023-04-08T00:14:42;16.42;;;12.10;;
74245;SDS011;62601;51.044;13.788;2023-04-08T00:17:04;14.35;;;10.43;;
74245;SDS011;62601;51.044;13.788;2023-04-08T00:19:25;16.30;;;11.50;;
74245;SDS011;62601;51.044;13.788;2023-04-08T00:21:46;15.18;;;12.10;;
74245;SDS011;62601;51.044;13.788;2023-04-08T00:24:07;17.33;;;11.98;;
74245;SDS011;62601;51.044;13.788;2023-04-08T00:26:29;14.82;;;11.55;;
74245;SDS011;62601;51.044;13.788;2023-04-08T00:28:50;19.50;;;13.93;;
74245;SDS011;62601;51.044;13.788;2023-04-08T00:31:12;19.17;;;13.55;;
74245;SDS011;62601;51.044;13.788;2023-04-08T00:33:33;14.70;;;12.25;;
74245;SDS011;62601;51.044;13.788;2023-04-08T00:35:55;16.65;;;11.80;;
74245;SDS011;62601;51.044;13.788;2023-04-08T00:38:16;19.90;;;13.07;;
74245;SDS011;62601;51.044;13.788;2023-04-08T00:40:38;18.48;;;12.90;;
74245;SDS011;62601;51.044;13.788;2023-04-08T00:42:59;20.08;;;12.23;;
74245;SDS011;62601;51.044;13.788;2023-04-08T00:45:19;19.50;;;13.73;;
74245;SDS011;62601;51.044;13.788;2023-04-08T00:47:41;18.52;;;11.95;;
74245;SDS011;62601;51.044;13.788;2023-04-08T00:50:02;21.15;;;13.60;;
74245;SDS011;62601;51.044;13.788;2023-04-08T00:52:24;19.13;;;13.35;;
74245;SDS011;62601;51.044;13.788;2023-04-08T00:54:45;20.85;;;13.68;;
74245;SDS011;62601;51.044;13.788;2023-04-08T00:57:06;22.88;;;14.00;;
74245;SDS011;62601;51.044;13.788;2023-04-08T00:59:28;22.45;;;15.07;;
74245;SDS011;62601;51.044;13.788;2023-04-08T01:01:59;19.05;;;14.40;;
74245;SDS011;62601;51.044;13.788;2023-04-08T01:04:27;21.85;;;13.95;;
74245;SDS011;62601;51.044;13.788;2023-04-08T01:09:32;22.05;;;14.30;;
74245;SDS011;62601;51.044;13.788;2023-04-08T01:11:55;21.85;;;13.85;;
74245;SDS011;62601;51.044;13.788;2023-04-08T01:14:22;23.38;;;13.65;;
74245;SDS011;62601;51.044;13.788;2023-04-08T01:16:45;19.60;;;13.05;;
74245;SDS011;62601;51.044;13.788;2023-04-08T01:19:07;21.25;;;12.88;;
74245;SDS011;62601;51.044;13.788;2023-04-08T01:21:28;21.05;;;13.52;;
74245;SDS011;62601;51.044;13.788;2023-04-08T01:26:30;22.95;;;14.80;;
74245;SDS011;62601;51.044;13.788;2023-04-08T01:28:55;23.60;;;14.98;;
74245;SDS011;62601;51.044;13.788;2023-04-08T01:31:17;24.73;;;14.48;;
74245;SDS011;62601;51.044;13.788;2023-04-08T01:33:39;22.60;;;13.75;;
74245;SDS011;62601;51.044;13.788;2023-04-08T01:36:01;21.02;;;14.05;;
74245;SDS011;62601;51.044;13.788;2023-04-08T01:38:23;22.83;;;13.38;;
74245;SDS011;62601;51.044;13.788;2023-04-08T01:40:45;18.63;;;12.80;;
74245;SDS011;62601;51.044;13.788;2023-04-08T01:43:08;20.60;;;12.85;;
74245;SDS011;62601;51.044;13.788;2023-04-08T01:45:30;23.63;;;12.05;;
74245;SDS011;62601;51.044;13.788;2023-04-08T01:47:52;21.38;;;12.65;;
74245;SDS011;62601;51.044;13.788;2023-04-08T01:50:14;19.17;;;11.95;;
74245;SDS011;62601;51.044;13.788;2023-04-08T01:52:36;17.70;;;11.85;;
74245;SDS011;62601;51.044;13.788;2023-04-08T01:54:58;17.95;;;12.60;;
74245;SDS011;62601;51.044;13.788;2023-04-08T01:57:23;18.52;;;11.38;;
74245;SDS011;62601;51.044;13.788;2023-04-08T01:59:47;20.17;;;11.55;;
74245;SDS011;62601;51.044;13.788;2023-04-08T02:02:12;16.23;;;11.05;;
74245;SDS011;62601;51.044;13.788;2023-04-08T02:04:35;18.95;;;11.38;;
74245;SDS011;62601;51.044;13.788;2023-04-08T02:06:56;16.38;;;11.25;;
74245;SDS011;62601;51.044;13.788;2023-04-08T02:09:18;14.95;;;10.23;;
74245;SDS011;62601;51.044;13.788;2023-04-08T02:11:38;18.92;;;12.10;;
74245;SDS011;62601;51.044;13.788;2023-04-08T02:14:00;17.08;;;10.50;;
74245;SDS011;62601;51.044;13.788;2023-04-08T02:16:39;17.17;;;10.18;;
74245;SDS011;62601;51.044;13.788;2023-04-08T02:19:07;15.75;;;10.15;;
74245;SDS011;62601;51.044;13.788;2023-04-08T02:21:34;15.25;;;9.38;;
74245;SDS011;62601;51.044;13.788;2023-04-08T02:23:56;14.73;;;9.50;;
74245;SDS011;62601;51.044;13.788;2023-04-08T02:26:18;15.00;;;10.07;;
74245;SDS011;62601;51.044;13.788;2023-04-08T02:28:40;15.55;;;9.32;;
74245;SDS011;62601;51.044;13.788;2023-04-08T02:31:00;14.18;;;8.77;;
74245;SDS011;62601;51.044;13.788;2023-04-08T02:33:23;14.00;;;8.55;;
74245;SDS011;62601;51.044;13.788;2023-04-08T02:35:44;12.43;;;8.13;;
74245;SDS011;62601;51.044;13.788;2023-04-08T02:38:08;12.88;;;8.30;;
74245;SDS011;62601;51.044;13.788;2023-04-08T02:40:30;13.95;;;8.40;;
74245;SDS011;62601;51.044;13.788;2023-04-08T02:42:52;14.00;;;8.70;;
74245;SDS011;62601;51.044;13.788;2023-04-08T02:45:13;12.52;;;8.45;;
74245;SDS011;62601;51.044;13.788;2023-04-08T02:47:35;11.98;;;7.97;;
74245;SDS011;62601;51.044;13.788;2023-04-08T02:49:56;11.75;;;7.53;;
74245;SDS011;62601;51.044;13.788;2023-04-08T02:52:18;13.13;;;7.53;;
74245;SDS011;62601;51.044;13.788;2023-04-08T02:54:39;15.20;;;7.65;;
74245;SDS011;62601;51.044;13.788;2023-04-08T02:57:00;11.13;;;6.82;;
74245;SDS011;62601;51.044;13.788;2023-04-08T02:59:22;12.80;;;7.03;;
74245;SDS011;62601;51.044;13.788;2023-04-08T03:01:43;10.73;;;6.65;;
74245;SDS011;62601;51.044;13.788;2023-04-08T03:04:05;10.73;;;6.82;;
74245;SDS011;62601;51.044;13.788;2023-04-08T03:06:26;12.63;;;6.50;;
74245;SDS011;62601;51.044;13.788;2023-04-08T03:08:47;10.55;;;6.65;;
74245;SDS011;62601;51.044;13.788;2023-04-08T03:11:09;11.00;;;7.07;;
74245;SDS011;62601;51.044;13.788;2023-04-08T03:13:29;10.50;;;5.75;;
74245;SDS011;62601;51.044;13.788;2023-04-08T03:15:51;8.90;;;5.60;;
74245;SDS011;62601;51.044;13.788;2023-04-08T03:18:12;9.07;;;6.68;;
74245;SDS011;62601;51.044;13.788;2023-04-08T03:20:33;9.20;;;6.20;;
74245;SDS011;62601;51.044;13.788;2023-04-08T03:22:54;9.50;;;6.07;;
74245;SDS011;62601;51.044;13.788;2023-04-08T03:25:16;9.00;;;5.82;;
74245;SDS011;62601;51.044;13.788;2023-04-08T03:27:37;7.50;;;5.47;;
74245;SDS011;62601;51.044;13.788;2023-04-08T03:29:57;8.25;;;5.72;;
74245;SDS011;62601;51.044;13.788;2023-04-08T03:32:17;9.38;;;6.10;;
74245;SDS011;62601;51.044;13.788;2023-04-08T03:34:38;7.20;;;5.68;;
74245;SDS011;62601;51.044;13.788;2023-04-08T03:36:59;7.38;;;5.90;;
74245;SDS011;62601;51.044;13.788;2023-04-08T03:39:20;8.13;;;5.53;;
74245;SDS011;62601;51.044;13.788;2023-04-08T03:41:42;8.75;;;5.60;;
74245;SDS011;62601;51.044;13.788;2023-04-08T03:44:02;8.50;;;5.78;;
74245;SDS011;62601;51.044;13.788;2023-04-08T03:46:23;9.85;;;6.40;;
74245;SDS011;62601;51.044;13.788;2023-04-08T03:48:45;8.20;;;5.82;;
74245;SDS011;62601;51.044;13.788;2023-04-08T03:51:06;8.20;;;4.97;;
74245;SDS011;62601;51.044;13.788;2023-04-08T03:53:28;11.25;;;5.68;;
74245;SDS011;62601;51.044;13.788;2023-04-08T03:55:49;9.40;;;5.88;;
74245;SDS011;62601;51.044;13.788;2023-04-08T03:58:09;8.90;;;5.45;;
74245;SDS011;62601;51.044;13.788;2023-04-08T04:00:30;7.55;;;4.85;;
74245;SDS011;62601;51.044;13.788;2023-04-08T04:02:52;6.05;;;4.68;;
74245;SDS011;62601;51.044;13.788;2023-04-08T04:05:12;9.90;;;4.53;;
74245;SDS011;62601;51.044;13.788;2023-04-08T04:07:33;9.90;;;5.00;;
74245;SDS011;62601;51.044;13.788;2023-04-08T04:09:55;6.63;;;4.60;;
74245;SDS011;62601;51.044;13.788;2023-04-08T04:12:16;6.57;;;4.35;;
74245;SDS011;62601;51.044;13.788;2023-04-08T04:14:37;5.93;;;4.68;;
74245;SDS011;62601;51.044;13.788;2023-04-08T04:16:59;6.72;;;4.40;;
74245;SDS011;62601;51.044;13.788;2023-04-08T04:19:20;6.63;;;4.75;;
74245;SDS011;62601;51.044;13.788;2023-04-08T04:21:42;6.95;;;4.20;;
74245;SDS011;62601;51.044;13.788;2023-04-08T04:24:03;5.65;;;4.93;;
74245;SDS011;62601;51.044;13.788;2023-04-08T04:26:24;6.57;;;4.80;;
74245;SDS011;62601;51.044;13.788;2023-04-08T04:28:46;6.80;;;4.80;;
74245;SDS011;62601;51.044;13.788;2023-04-08T04:31:07;9.15;;;5.75;;
74245;SDS011;62601;51.044;13.788;2023-04-08T04:33:29;6.93;;;4.60;;
74245;SDS011;62601;51.044;13.788;2023-04-08T04:35:50;7.05;;;5.38;;
74245;SDS011;62601;51.044;13.788;2023-04-08T04:38:11;10.15;;;5.43;;
74245;SDS011;62601;51.044;13.788;2023-04-08T04:40:33;7.05;;;4.90;;
74245;SDS011;62601;51.044;13.788;2023-04-08T04:42:54;8.90;;;6.05;;
74245;SDS011;62601;51.044;13.788;2023-04-08T04:45:15;8.13;;;5.07;;
74245;SDS011;62601;51.044;13.788;2023-04-08T04:47:36;7.90;;;5.43;;
74245;SDS011;62601;51.044;13.788;2023-04-08T04:49:58;7.57;;;5.13;;
74245;SDS011;62601;51.044;13.788;2023-04-08T04:52:19;7.82;;;5.47;;
74245;SDS011;62601;51.044;13.788;2023-04-08T04:54:41;6.75;;;4.78;;
74245;SDS011;62601;51.044;13.788;2023-04-08T04:57:02;8.25;;;5.30;;
74245;SDS011;62601;51.044;13.788;2023-04-08T04:59:24;9.38;;;5.45;;
74245;SDS011;62601;51.044;13.788;2023-04-08T05:01:45;8.95;;;5.47;;
74245;SDS011;62601;51.044;13.788;2023-04-08T05:04:06;8.35;;;5.38;;
74245;SDS011;62601;51.044;13.788;2023-04-08T05:06:27;9.07;;;5.78;;
74245;SDS011;62601;51.044;13.788;2023-04-08T05:08:48;8.65;;;6.03;;
74245;SDS011;62601;51.044;13.788;2023-04-08T05:11:10;8.73;;;5.60;;
74245;SDS011;62601;51.044;13.788;2023-04-08T05:13:31;7.15;;;5.43;;
74245;SDS011;62601;51.044;13.788;2023-04-08T05:15:53;5.88;;;4.75;;
74245;SDS011;62601;51.044;13.788;2023-04-08T05:18:14;7.90;;;5.45;;
74245;SDS011;62601;51.044;13.788;2023-04-08T05:20:36;6.47;;;4.65;;
74245;SDS011;62601;51.044;13.788;2023-04-08T05:22:57;8.85;;;4.68;;
74245;SDS011;62601;51.044;13.788;2023-04-08T05:25:19;7.80;;;4.35;;
74245;SDS011;62601;51.044;13.788;2023-04-08T05:27:40;9.85;;;5.70;;
74245;SDS011;62601;51.044;13.788;2023-04-08T05:30:01;6.38;;;4.93;;
74245;SDS011;62601;51.044;13.788;2023-04-08T05:32:23;7.38;;;4.88;;
74245;SDS011;62601;51.044;13.788;2023-04-08T05:34:44;7.25;;;4.95;;
74245;SDS011;62601;51.044;13.788;2023-04-08T05:37:06;6.45;;;4.80;;
74245;SDS011;62601;51.044;13.788;2023-04-08T05:39:27;6.78;;;4.88;;
74245;SDS011;62601;51.044;13.788;2023-04-08T05:41:49;6.30;;;4.47;;
74245;SDS011;62601;51.044;13.788;2023-04-08T05:44:11;8.57;;;6.03;;
74245;SDS011;62601;51.044;13.788;2023-04-08T05:46:32;7.40;;;5.05;;
74245;SDS011;62601;51.044;13.788;2023-04-08T05:48:52;8.45;;;5.57;;
74245;SDS011;62601;51.044;13.788;2023-04-08T05:51:13;8.18;;;5.15;;
74245;SDS011;62601;51.044;13.788;2023-04-08T05:53:35;7.15;;;5.40;;
74245;SDS011;62601;51.044;13.788;2023-04-08T05:55:55;7.57;;;5.30;;
74245;SDS011;62601;51.044;13.788;2023-04-08T05:58:16;8.75;;;6.15;;
74245;SDS011;62601;51.044;13.788;2023-04-08T06:00:38;8.25;;;6.00;;
74245;SDS011;62601;51.044;13.788;2023-04-08T06:02:59;9.55;;;5.88;;
74245;SDS011;62601;51.044;13.788;2023-04-08T06:05:20;10.45;;;6.07;;
74245;SDS011;62601;51.044;13.788;2023-04-08T06:07:41;8.73;;;5.78;;
74245;SDS011;62601;51.044;13.788;2023-04-08T06:10:03;7.55;;;5.53;;
74245;SDS011;62601;51.044;13.788;2023-04-08T06:12:24;8.50;;;5.47;;
74245;SDS011;62601;51.044;13.788;2023-04-08T06:14:46;10.77;;;6.22;;
74245;SDS011;62601;51.044;13.788;2023-04-08T06:17:07;8.20;;;5.65;;
74245;SDS011;62601;51.044;13.788;2023-04-08T06:19:28;8.65;;;6.00;;
74245;SDS011;62601;51.044;13.788;2023-04-08T06:21:49;8.70;;;5.60;;
74245;SDS011;62601;51.044;13.788;2023-04-08T06:24:11;7.40;;;4.88;;
74245;SDS011;62601;51.044;13.788;2023-04-08T06:26:32;7.40;;;5.05;;
74245;SDS011;62601;51.044;13.788;2023-04-08T06:28:54;6.40;;;4.95;;
74245;SDS011;62601;51.044;13.788;2023-04-08T06:31:15;6.40;;;5.07;;
74245;SDS011;62601;51.044;13.788;2023-04-08T06:33:36;7.80;;;5.55;;
74245;SDS011;62601;51.044;13.788;2023-04-08T06:36:04;9.57;;;5.70;;
74245;SDS011;62601;51.044;13.788;2023-04-08T06:38:25;9.77;;;5.55;;
74245;SDS011;62601;51.044;13.788;2023-04-08T06:40:47;8.57;;;5.90;;
74245;SDS011;62601;51.044;13.788;2023-04-08T06:43:08;7.78;;;5.88;;
74245;SDS011;62601;51.044;13.788;2023-04-08T06:45:29;7.85;;;5.68;;
74245;SDS011;62601;51.044;13.788;2023-04-08T06:47:50;10.35;;;5.95;;
74245;SDS011;62601;51.044;13.788;2023-04-08T06:50:12;7.28;;;5.78;;
74245;SDS011;62601;51.044;13.788;2023-04-08T06:52:33;9.75;;;6.80;;
74245;SDS011;62601;51.044;13.788;2023-04-08T06:54:55;8.82;;;6.40;;
74245;SDS011;62601;51.044;13.788;2023-04-08T06:57:16;9.68;;;6.43;;
74245;SDS011;62601;51.044;13.788;2023-04-08T06:59:37;10.02;;;7.25;;
74245;SDS011;62601;51.044;13.788;2023-04-08T07:01:58;11.55;;;7.53;;
74245;SDS011;62601;51.044;13.788;2023-04-08T07:04:20;10.77;;;7.55;;
74245;SDS011;62601;51.044;13.788;2023-04-08T07:06:41;16.33;;;10.52;;
74245;SDS011;62601;51.044;13.788;2023-04-08T07:09:01;22.05;;;14.10;;
74245;SDS011;62601;51.044;13.788;2023-04-08T07:11:22;13.15;;;9.35;;
74245;SDS011;62601;51.044;13.788;2023-04-08T07:13:44;14.85;;;10.10;;
74245;SDS011;62601;51.044;13.788;2023-04-08T07:16:04;17.50;;;12.80;;
74245;SDS011;62601;51.044;13.788;2023-04-08T07:18:26;13.98;;;8.90;;
74245;SDS011;62601;51.044;13.788;2023-04-08T07:20:51;16.90;;;11.00;;
74245;SDS011;62601;51.044;13.788;2023-04-08T07:23:13;15.45;;;10.40;;
74245;SDS011;62601;51.044;13.788;2023-04-08T07:25:34;15.20;;;10.45;;
74245;SDS011;62601;51.044;13.788;2023-04-08T07:27:55;14.30;;;10.05;;
74245;SDS011;62601;51.044;13.788;2023-04-08T07:30:17;17.23;;;11.52;;
74245;SDS011;62601;51.044;13.788;2023-04-08T07:32:38;15.25;;;9.52;;
74245;SDS011;62601;51.044;13.788;2023-04-08T07:35:00;13.70;;;9.32;;
74245;SDS011;62601;51.044;13.788;2023-04-08T07:37:21;14.85;;;10.10;;
74245;SDS011;62601;51.044;13.788;2023-04-08T07:39:42;17.65;;;11.63;;
74245;SDS011;62601;51.044;13.788;2023-04-08T07:42:04;15.93;;;10.35;;
74245;SDS011;62601;51.044;13.788;2023-04-08T07:44:25;16.23;;;11.98;;
74245;SDS011;62601;51.044;13.788;2023-04-08T07:46:47;20.10;;;14.15;;
74245;SDS011;62601;51.044;13.788;2023-04-08T07:49:08;14.82;;;11.02;;
74245;SDS011;62601;51.044;13.788;2023-04-08T07:51:29;12.63;;;9.15;;
74245;SDS011;62601;51.044;13.788;2023-04-08T07:53:54;15.25;;;10.38;;
74245;SDS011;62601;51.044;13.788;2023-04-08T07:56:15;14.15;;;9.52;;
74245;SDS011;62601;51.044;13.788;2023-04-08T07:58:37;13.25;;;8.40;;
74245;SDS011;62601;51.044;13.788;2023-04-08T08:00:58;12.98;;;9.30;;
74245;SDS011;62601;51.044;13.788;2023-04-08T08:03:18;12.82;;;8.70;;
74245;SDS011;62601;51.044;13.788;2023-04-08T08:05:40;11.52;;;8.32;;
74245;SDS011;62601;51.044;13.788;2023-04-08T08:08:04;11.02;;;7.72;;
74245;SDS011;62601;51.044;13.788;2023-04-08T08:10:24;11.60;;;8.82;;
74245;SDS011;62601;51.044;13.788;2023-04-08T08:12:45;11.23;;;8.35;;
74245;SDS011;62601;51.044;13.788;2023-04-08T08:15:07;14.07;;;8.20;;
74245;SDS011;62601;51.044;13.788;2023-04-08T08:17:27;10.40;;;7.45;;
74245;SDS011;62601;51.044;13.788;2023-04-08T08:19:48;10.32;;;7.88;;
74245;SDS011;62601;51.044;13.788;2023-04-08T08:22:08;9.93;;;8.02;;
74245;SDS011;62601;51.044;13.788;2023-04-08T08:24:28;11.02;;;8.10;;
74245;SDS011;62601;51.044;13.788;2023-04-08T08:26:48;11.02;;;7.85;;
74245;SDS011;62601;51.044;13.788;2023-04-08T08:29:08;9.40;;;6.85;;
74245;SDS011;62601;51.044;13.788;2023-04-08T08:31:29;8.02;;;6.40;;
74245;SDS011;62601;51.044;13.788;2023-04-08T08:33:51;9.35;;;7.32;;
74245;SDS011;62601;51.044;13.788;2023-04-08T08:36:11;10.07;;;7.38;;
74245;SDS011;62601;51.044;13.788;2023-04-08T08:38:32;11.95;;;8.43;;
74245;SDS011;62601;51.044;13.788;2023-04-08T08:40:56;10.02;;;7.90;;
74245;SDS011;62601;51.044;13.788;2023-04-08T08:43:16;9.27;;;7.53;;
74245;SDS011;62601;51.044;13.788;2023-04-08T08:45:40;11.18;;;9.05;;
74245;SDS011;62601;51.044;13.788;2023-04-08T08:48:01;12.30;;;9.07;;
74245;SDS011;62601;51.044;13.788;2023-04-08T08:50:25;10.65;;;7.90;;
74245;SDS011;62601;51.044;13.788;2023-04-08T08:52:50;9.52;;;7.70;;
74245;SDS011;62601;51.044;13.788;2023-04-08T08:55:10;10.95;;;8.55;;
74245;SDS011;62601;51.044;13.788;2023-04-08T08:57:32;9.23;;;7.47;;
74245;SDS011;62601;51.044;13.788;2023-04-08T08:59:54;10.18;;;7.90;;
74245;SDS011;62601;51.044;13.788;2023-04-08T09:02:27;10.02;;;7.40;;
74245;SDS011;62601;51.044;13.788;2023-04-08T09:05:00;11.77;;;8.45;;
74245;SDS011;62601;51.044;13.788;2023-04-08T09:07:23;10.05;;;8.02;;
74245;SDS011;62601;51.044;13.788;2023-04-08T09:09:48;10.18;;;7.85;;
74245;SDS011;62601;51.044;13.788;2023-04-08T09:12:12;13.93;;;9.90;;
74245;SDS011;62601;51.044;13.788;2023-04-08T09:14:32;11.80;;;8.80;;
74245;SDS011;62601;51.044;13.788;2023-04-08T09:16:52;11.82;;;9.30;;
74245;SDS011;62601;51.044;13.788;2023-04-08T09:19:14;11.35;;;8.07;;
74245;SDS011;62601;51.044;13.788;2023-04-08T09:21:34;11.45;;;8.60;;
74245;SDS011;62601;51.044;13.788;2023-04-08T09:23:54;10.95;;;8.25;;
74245;SDS011;62601;51.044;13.788;2023-04-08T09:26:15;13.75;;;8.98;;
74245;SDS011;62601;51.044;13.788;2023-04-08T09:28:40;11.32;;;7.53;;
74245;SDS011;62601;51.044;13.788;2023-04-08T09:33:47;13.15;;;8.73;;
74245;SDS011;62601;51.044;13.788;2023-04-08T09:36:08;11.32;;;7.90;;
74245;SDS011;62601;51.044;13.788;2023-04-08T09:38:28;10.95;;;8.70;;
74245;SDS011;62601;51.044;13.788;2023-04-08T09:40:50;12.35;;;8.65;;
74245;SDS011;62601;51.044;13.788;2023-04-08T09:43:15;10.82;;;8.60;;
74245;SDS011;62601;51.044;13.788;2023-04-08T09:45:40;12.02;;;8.30;;
74245;SDS011;62601;51.044;13.788;2023-04-08T09:48:21;12.48;;;9.35;;
74245;SDS011;62601;51.044;13.788;2023-04-08T09:50:45;12.27;;;9.30;;
74245;SDS011;62601;51.044;13.788;2023-04-08T09:53:43;12.02;;;9.20;;
74245;SDS011;62601;51.044;13.788;2023-04-08T09:55:54;13.60;;;9.88;;
74245;SDS011;62601;51.044;13.788;2023-04-08T09:58:16;12.70;;;9.13;;
74245;SDS011;62601;51.044;13.788;2023-04-08T10:00:38;12.70;;;9.45;;
74245;SDS011;62601;51.044;13.788;2023-04-08T10:05:39;13.77;;;10.00;;
74245;SDS011;62601;51.044;13.788;2023-04-08T10:08:01;14.55;;;10.20;;
74245;SDS011;62601;51.044;13.788;2023-04-08T10:10:23;19.35;;;9.23;;
74245;SDS011;62601;51.044;13.788;2023-04-08T10:12:48;12.30;;;8.65;;
74245;SDS011;62601;51.044;13.788;2023-04-08T10:17:47;13.82;;;9.35;;
74245;SDS011;62601;51.044;13.788;2023-04-08T10:20:24;11.45;;;8.52;;
74245;SDS011;62601;51.044;13.788;2023-04-08T10:22:50;12.57;;;8.65;;
74245;SDS011;62601;51.044;13.788;2023-04-08T10:27:50;14.88;;;9.90;;
74245;SDS011;62601;51.044;13.788;2023-04-08T10:32:50;13.98;;;10.05;;
74245;SDS011;62601;51.044;13.788;2023-04-08T10:35:10;12.57;;;8.20;;
74245;SDS011;62601;51.044;13.788;2023-04-08T10:37:31;14.00;;;9.30;;
74245;SDS011;62601;51.044;13.788;2023-04-08T10:39:53;11.70;;;8.38;;
74245;SDS011;62601;51.044;13.788;2023-04-08T10:42:14;14.52;;;8.90;;
74245;SDS011;62601;51.044;13.788;2023-04-08T10:44:34;11.27;;;7.65;;
74245;SDS011;62601;51.044;13.788;2023-04-08T10:46:56;10.70;;;7.75;;
74245;SDS011;62601;51.044;13.788;2023-04-08T10:49:18;10.27;;;7.65;;
74245;SDS011;62601;51.044;13.788;2023-04-08T10:51:39;12.23;;;8.77;;
74245;SDS011;62601;51.044;13.788;2023-04-08T10:54:11;12.13;;;8.10;;
74245;SDS011;62601;51.044;13.788;2023-04-08T10:56:31;11.43;;;8.10;;
74245;SDS011;62601;51.044;13.788;2023-04-08T10:58:53;12.77;;;8.93;;
74245;SDS011;62601;51.044;13.788;2023-04-08T11:01:18;10.27;;;8.15;;
74245;SDS011;62601;51.044;13.788;2023-04-08T11:03:40;9.95;;;8.23;;
74245;SDS011;62601;51.044;13.788;2023-04-08T11:06:01;12.02;;;8.45;;
74245;SDS011;62601;51.044;13.788;2023-04-08T11:08:26;10.55;;;7.88;;
74245;SDS011;62601;51.044;13.788;2023-04-08T11:10:48;12.77;;;8.23;;
74245;SDS011;62601;51.044;13.788;2023-04-08T11:13:09;11.43;;;8.65;;
74245;SDS011;62601;51.044;13.788;2023-04-08T11:15:31;12.65;;;9.43;;
74245;SDS011;62601;51.044;13.788;2023-04-08T11:17:52;12.65;;;9.65;;
74245;SDS011;62601;51.044;13.788;2023-04-08T11:20:13;13.13;;;9.90;;
74245;SDS011;62601;51.044;13.788;2023-04-08T11:22:35;13.65;;;9.15;;
74245;SDS011;62601;51.044;13.788;2023-04-08T11:24:55;15.73;;;11.75;;
74245;SDS011;62601;51.044;13.788;2023-04-08T11:27:16;16.13;;;11.55;;
74245;SDS011;62601;51.044;13.788;2023-04-08T11:29:38;16.55;;;10.70;;
74245;SDS011;62601;51.044;13.788;2023-04-08T11:32:00;13.40;;;9.80;;
74245;SDS011;62601;51.044;13.788;2023-04-08T11:34:23;14.35;;;9.77;;
74245;SDS011;62601;51.044;13.788;2023-04-08T11:36:44;15.80;;;10.70;;
74245;SDS011;62601;51.044;13.788;2023-04-08T11:39:09;16.08;;;11.63;;
74245;SDS011;62601;51.044;13.788;2023-04-08T11:41:37;14.70;;;11.07;;
74245;SDS011;62601;51.044;13.788;2023-04-08T11:43:59;16.75;;;10.80;;
74245;SDS011;62601;51.044;13.788;2023-04-08T11:46:20;15.35;;;10.50;;
74245;SDS011;62601;51.044;13.788;2023-04-08T11:48:40;14.98;;;11.57;;
74245;SDS011;62601;51.044;13.788;2023-04-08T11:51:01;16.00;;;11.23;;
74245;SDS011;62601;51.044;13.788;2023-04-08T11:53:25;14.50;;;10.30;;
74245;SDS011;62601;51.044;13.788;2023-04-08T11:55:47;17.13;;;12.38;;
74245;SDS011;62601;51.044;13.788;2023-04-08T11:58:07;16.00;;;11.98;;
74245;SDS011;62601;51.044;13.788;2023-04-08T12:00:29;20.33;;;13.50;;
74245;SDS011;62601;51.044;13.788;2023-04-08T12:02:50;18.63;;;12.45;;
74245;SDS011;62601;51.044;13.788;2023-04-08T12:05:12;19.25;;;13.13;;
74245;SDS011;62601;51.044;13.788;2023-04-08T12:07:34;21.08;;;13.05;;
74245;SDS011;62601;51.044;13.788;2023-04-08T12:09:54;21.25;;;13.63;;
74245;SDS011;62601;51.044;13.788;2023-04-08T12:12:15;20.17;;;13.52;;
74245;SDS011;62601;51.044;13.788;2023-04-08T12:14:36;20.45;;;13.32;;
74245;SDS011;62601;51.044;13.788;2023-04-08T12:16:57;22.08;;;14.63;;
74245;SDS011;62601;51.044;13.788;2023-04-08T12:19:19;22.52;;;14.30;;
74245;SDS011;62601;51.044;13.788;2023-04-08T12:21:40;23.23;;;14.93;;
74245;SDS011;62601;51.044;13.788;2023-04-08T12:24:02;20.33;;;14.50;;
74245;SDS011;62601;51.044;13.788;2023-04-08T12:26:23;22.00;;;14.38;;
74245;SDS011;62601;51.044;13.788;2023-04-08T12:28:45;22.30;;;13.80;;
74245;SDS011;62601;51.044;13.788;2023-04-08T12:31:06;21.98;;;14.73;;
74245;SDS011;62601;51.044;13.788;2023-04-08T12:33:27;18.75;;;14.05;;
74245;SDS011;62601;51.044;13.788;2023-04-08T12:35:49;21.50;;;14.82;;
74245;SDS011;62601;51.044;13.788;2023-04-08T12:38:10;22.15;;;14.77;;
74245;SDS011;62601;51.044;13.788;2023-04-08T12:40:32;23.05;;;15.50;;
74245;SDS011;62601;51.044;13.788;2023-04-08T12:42:53;21.25;;;15.75;;
74245;SDS011;62601;51.044;13.788;2023-04-08T12:45:15;21.40;;;14.98;;
74245;SDS011;62601;51.044;13.788;2023-04-08T12:47:36;19.00;;;13.27;;
74245;SDS011;62601;51.044;13.788;2023-04-08T12:49:57;21.08;;;15.23;;
74245;SDS011;62601;51.044;13.788;2023-04-08T12:52:19;19.17;;;13.43;;
74245;SDS011;62601;51.044;13.788;2023-04-08T12:54:41;22.15;;;13.95;;
74245;SDS011;62601;51.044;13.788;2023-04-08T12:57:02;17.75;;;12.95;;
74245;SDS011;62601;51.044;13.788;2023-04-08T12:59:22;20.15;;;13.65;;
74245;SDS011;62601;51.044;13.788;2023-04-08T13:01:43;18.52;;;13.35;;
74245;SDS011;62601;51.044;13.788;2023-04-08T13:04:04;18.17;;;13.27;;
74245;SDS011;62601;51.044;13.788;2023-04-08T13:06:26;17.98;;;13.93;;
74245;SDS011;62601;51.044;13.788;2023-04-08T13:08:47;20.23;;;14.43;;
74245;SDS011;62601;51.044;13.788;2023-04-08T13:11:08;21.05;;;14.80;;
74245;SDS011;62601;51.044;13.788;2023-04-08T13:13:29;19.33;;;13.55;;
74245;SDS011;62601;51.044;13.788;2023-04-08T13:15:51;18.40;;;13.73;;
74245;SDS011;62601;51.044;13.788;2023-04-08T13:18:12;19.30;;;13.73;;
74245;SDS011;62601;51.044;13.788;2023-04-08T13:20:34;15.98;;;12.50;;
74245;SDS011;62601;51.044;13.788;2023-04-08T13:22:55;18.10;;;13.30;;
74245;SDS011;62601;51.044;13.788;2023-04-08T13:25:15;19.65;;;13.25;;
74245;SDS011;62601;51.044;13.788;2023-04-08T13:27:37;18.10;;;13.27;;
74245;SDS011;62601;51.044;13.788;2023-04-08T13:29:57;19.83;;;13.68;;
74245;SDS011;62601;51.044;13.788;2023-04-08T13:32:18;16.98;;;12.77;;
74245;SDS011;62601;51.044;13.788;2023-04-08T13:34:40;17.67;;;13.07;;
74245;SDS011;62601;51.044;13.788;2023-04-08T13:37:04;17.70;;;13.10;;
74245;SDS011;62601;51.044;13.788;2023-04-08T13:39:26;18.25;;;12.27;;
74245;SDS011;62601;51.044;13.788;2023-04-08T13:41:47;15.73;;;11.18;;
74245;SDS011;62601;51.044;13.788;2023-04-08T13:44:09;16.17;;;11.85;;
74245;SDS011;62601;51.044;13.788;2023-04-08T13:46:29;17.10;;;12.60;;
74245;SDS011;62601;51.044;13.788;2023-04-08T13:48:49;17.77;;;12.25;;
74245;SDS011;62601;51.044;13.788;2023-04-08T13:51:09;14.50;;;11.15;;
74245;SDS011;62601;51.044;13.788;2023-04-08T13:53:31;17.05;;;12.25;;
74245;SDS011;62601;51.044;13.788;2023-04-08T13:55:52;15.38;;;11.70;;
74245;SDS011;62601;51.044;13.788;2023-04-08T13:58:13;16.65;;;11.82;;
74245;SDS011;62601;51.044;13.788;2023-04-08T14:00:35;18.08;;;13.00;;
74245;SDS011;62601;51.044;13.788;2023-04-08T14:02:55;18.38;;;12.30;;
74245;SDS011;62601;51.044;13.788;2023-04-08T14:05:17;17.23;;;12.32;;
74245;SDS011;62601;51.044;13.788;2023-04-08T14:07:37;17.05;;;13.00;;